createdAt,value
2022-12-26T00:01:17.913Z,13.76
2022-12-26T00:03:47.700Z,13.67
2022-12-26T00:06:24.510Z,13.63
2022-12-26T00:08:58.039Z,13.54
2022-12-26T00:14:22.283Z,13.49
2022-12-26T00:25:35.653Z,13.36
2022-12-26T00:28:21.864Z,13.38
2022-12-26T00:30:59.785Z,13.23
2022-12-26T00:33:28.494Z,13.17
2022-12-26T00:36:02.796Z,13.04
2022-12-26T00:38:32.064Z,12.99
2022-12-26T00:41:18.298Z,12.88
2022-12-26T00:43:48.455Z,12.79
2022-12-26T00:46:23.254Z,12.83
2022-12-26T00:48:51.999Z,12.79
2022-12-26T00:51:21.375Z,12.82
2022-12-26T00:53:52.829Z,12.78
2022-12-26T00:56:22.559Z,12.82
2022-12-26T00:58:50.691Z,12.76
2022-12-26T01:01:21.777Z,12.81
2022-12-26T01:03:52.983Z,12.75
2022-12-26T01:06:21.399Z,12.74
2022-12-26T01:08:49.841Z,12.69
2022-12-26T01:11:39.556Z,12.66
2022-12-26T01:14:12.022Z,12.62
2022-12-26T01:16:42.724Z,12.60
2022-12-26T01:19:12.345Z,12.53
2022-12-26T01:21:41.015Z,12.49
2022-12-26T01:24:09.577Z,12.45
2022-12-26T01:26:38.062Z,12.47
2022-12-26T01:29:06.486Z,12.44
2022-12-26T01:31:39.617Z,12.47
2022-12-26T01:34:09.104Z,12.49
2022-12-26T01:36:37.179Z,12.49
2022-12-26T01:39:12.478Z,12.48
2022-12-26T01:41:40.983Z,12.49
2022-12-26T01:44:48.162Z,12.45
2022-12-26T01:47:23.224Z,12.43
2022-12-26T01:49:56.630Z,12.42
2022-12-26T01:52:35.710Z,12.47
2022-12-26T01:55:07.158Z,12.45
2022-12-26T01:57:56.050Z,12.48
2022-12-26T02:01:04.719Z,12.47
2022-12-26T02:03:52.216Z,12.49
2022-12-26T02:06:21.927Z,12.49
2022-12-26T02:14:56.984Z,12.55
2022-12-26T02:17:29.932Z,12.57
2022-12-26T02:49:58.395Z,12.65
2022-12-26T03:37:20.795Z,12.29
2022-12-26T04:21:04.206Z,11.89
2022-12-26T04:24:20.945Z,11.83
2022-12-26T04:41:35.224Z,11.94
2022-12-26T04:52:13.200Z,11.91
2022-12-26T04:54:54.656Z,11.89
2022-12-26T05:06:48.759Z,11.90
2022-12-26T05:09:36.292Z,11.94
2022-12-26T05:12:20.039Z,11.95
2022-12-26T05:14:59.761Z,11.95
2022-12-26T05:17:46.295Z,11.94
2022-12-26T05:20:51.390Z,11.92
2022-12-26T05:28:53.232Z,11.86
2022-12-26T05:31:22.213Z,11.83
2022-12-26T05:37:04.633Z,11.82
2022-12-26T05:39:32.630Z,11.81
2022-12-26T05:42:00.693Z,11.83
2022-12-26T05:44:30.275Z,11.82
2022-12-26T05:46:59.861Z,11.79
2022-12-26T05:49:28.575Z,11.82
2022-12-26T05:51:56.756Z,11.82
2022-12-26T05:54:24.910Z,11.80
2022-12-26T05:56:54.627Z,11.85
2022-12-26T05:59:22.709Z,11.86
2022-12-26T06:01:52.760Z,11.85
2022-12-26T06:04:22.529Z,11.95
2022-12-26T06:06:51.312Z,11.91
2022-12-26T06:09:19.876Z,11.89
2022-12-26T06:11:49.150Z,11.87
2022-12-26T06:14:18.069Z,11.87
2022-12-26T06:16:46.562Z,11.83
2022-12-26T06:19:16.381Z,11.81
2022-12-26T06:21:44.963Z,11.80
2022-12-26T06:24:14.067Z,11.79
2022-12-26T06:26:42.305Z,11.83
2022-12-26T06:29:11.132Z,11.83
2022-12-26T06:31:39.324Z,11.84
2022-12-26T06:34:10.042Z,11.91
2022-12-26T06:36:39.653Z,11.94
2022-12-26T06:39:10.920Z,12.02
2022-12-26T06:41:41.068Z,12.03
2022-12-26T06:44:16.245Z,12.11
2022-12-26T06:46:46.988Z,12.17
2022-12-26T06:49:15.331Z,12.23
2022-12-26T06:54:31.330Z,12.28
2022-12-26T06:57:00.887Z,12.26
2022-12-26T06:59:29.149Z,12.24
2022-12-26T07:01:58.202Z,12.14
2022-12-26T07:04:27.283Z,12.08
2022-12-26T07:06:57.239Z,12.00
2022-12-26T07:09:31.456Z,11.91
2022-12-26T07:12:01.693Z,11.89
2022-12-26T07:14:30.467Z,11.83
2022-12-26T07:17:00.112Z,11.79
2022-12-26T07:19:28.343Z,11.79
2022-12-26T07:21:57.968Z,11.77
2022-12-26T07:24:26.148Z,11.79
2022-12-26T07:26:54.485Z,11.81
2022-12-26T07:29:23.277Z,11.87
2022-12-26T07:31:51.345Z,11.91
2022-12-26T07:34:19.638Z,11.95
2022-12-26T07:36:47.835Z,11.99
2022-12-26T07:39:17.892Z,12.02
2022-12-26T07:42:01.212Z,12.06
2022-12-26T07:44:39.232Z,12.11
2022-12-26T07:47:11.742Z,12.01
2022-12-26T07:49:39.860Z,11.86
2022-12-26T07:52:07.918Z,11.56
2022-12-26T07:54:37.341Z,11.24
2022-12-26T07:57:38.246Z,11.02
2022-12-26T07:59:53.931Z,10.94
2022-12-26T08:02:22.428Z,10.82
2022-12-26T08:04:50.692Z,10.71
2022-12-26T08:07:19.007Z,10.64
2022-12-26T08:09:52.320Z,10.58
2022-12-26T08:12:27.771Z,10.56
2022-12-26T08:14:56.965Z,10.53
2022-12-26T08:17:32.608Z,10.53
2022-12-26T08:20:14.728Z,10.56
2022-12-26T08:22:43.154Z,10.63
2022-12-26T08:25:22.200Z,10.70
2022-12-26T08:27:50.844Z,10.79
2022-12-26T09:15:13.980Z,11.60
2022-12-26T09:17:42.150Z,11.77
2022-12-26T09:20:12.205Z,11.91
2022-12-26T09:22:52.400Z,11.98
2022-12-26T09:25:23.497Z,12.03
2022-12-26T09:27:58.816Z,12.05
2022-12-26T09:30:29.228Z,12.07
2022-12-26T09:32:58.387Z,12.06
2022-12-26T09:35:26.636Z,12.03
2022-12-26T09:37:54.865Z,12.08
2022-12-26T09:40:28.267Z,12.00
2022-12-26T09:43:11.329Z,12.02
2022-12-26T09:45:51.691Z,12.06
2022-12-26T09:48:30.489Z,12.08
2022-12-26T09:50:59.165Z,12.15
2022-12-26T09:53:34.796Z,12.20
2022-12-26T09:56:13.956Z,12.28
2022-12-26T09:58:56.546Z,12.37
2022-12-26T10:01:30.183Z,12.46
2022-12-26T10:04:00.984Z,12.52
2022-12-26T10:06:36.355Z,12.62
2022-12-26T10:09:42.662Z,12.75
2022-12-26T10:12:25.877Z,12.81
2022-12-26T10:15:00.856Z,12.90
2022-12-26T10:17:39.020Z,12.96
2022-12-26T10:20:21.132Z,12.99
2022-12-26T10:23:33.996Z,13.08
2022-12-26T10:26:13.966Z,13.16
2022-12-26T10:28:47.294Z,13.19
2022-12-26T10:31:24.218Z,13.30
2022-12-26T10:34:00.328Z,13.43
2022-12-26T10:36:34.721Z,13.47
2022-12-26T10:39:09.087Z,13.31
2022-12-26T10:41:43.181Z,13.09
2022-12-26T10:44:13.315Z,12.85
2022-12-26T10:47:00.534Z,12.61
2022-12-26T10:49:30.652Z,12.42
2022-12-26T10:52:02.264Z,12.36
2022-12-26T10:54:31.538Z,12.38
2022-12-26T10:57:02.006Z,12.44
2022-12-26T10:59:40.725Z,12.52
2022-12-26T11:02:26.263Z,12.62
2022-12-26T11:05:21.802Z,12.70
2022-12-26T11:08:06.713Z,12.81
2022-12-26T11:10:35.605Z,12.97
2022-12-26T11:13:07.792Z,13.11
2022-12-26T11:15:42.030Z,13.29
2022-12-26T11:18:21.147Z,13.35
2022-12-26T11:21:06.752Z,13.49
2022-12-26T11:24:04.140Z,13.50
2022-12-26T11:26:41.951Z,13.47
2022-12-26T11:29:15.900Z,13.48
2022-12-26T11:31:52.612Z,13.47
2022-12-26T11:34:28.460Z,13.45
2022-12-26T11:37:03.643Z,13.41
2022-12-26T11:39:58.007Z,13.43
2022-12-26T11:42:27.919Z,13.43
2022-12-26T11:44:58.600Z,13.39
2022-12-26T11:47:29.595Z,13.38
2022-12-26T11:50:07.353Z,13.32
2022-12-26T11:52:39.782Z,13.32
2022-12-26T11:55:33.568Z,13.39
2022-12-26T11:58:06.697Z,13.45
2022-12-26T12:00:37.374Z,13.53
2022-12-26T12:03:12.761Z,13.55
2022-12-26T12:05:53.987Z,13.56
2022-12-26T12:08:39.128Z,13.57
2022-12-26T12:11:24.959Z,13.62
2022-12-26T12:14:07.508Z,13.74
2022-12-26T12:17:03.408Z,13.84
2022-12-26T12:19:48.346Z,13.79
2022-12-26T12:22:46.228Z,13.78
2022-12-26T12:25:52.173Z,13.73
2022-12-26T12:28:43.847Z,13.60
2022-12-26T12:31:20.526Z,13.34
2022-12-26T12:33:55.721Z,12.52
2022-12-26T12:36:30.575Z,11.70
2022-12-26T12:39:18.981Z,11.12
2022-12-26T12:42:18.115Z,10.77
2022-12-26T12:45:07.471Z,10.62
2022-12-26T12:47:47.865Z,10.55
2022-12-26T12:50:27.165Z,10.54
2022-12-26T12:53:04.255Z,10.62
2022-12-26T12:55:53.459Z,10.69
2022-12-26T12:58:31.461Z,10.73
2022-12-26T13:01:03.390Z,10.75
2022-12-26T13:03:36.629Z,10.86
2022-12-26T13:06:10.757Z,10.95
2022-12-26T13:08:43.070Z,11.06
2022-12-26T13:11:26.360Z,11.20
2022-12-26T13:14:03.028Z,11.31
2022-12-26T13:22:53.972Z,11.87
2022-12-26T13:25:25.982Z,12.03
2022-12-26T13:31:05.898Z,12.22
2022-12-26T13:51:53.239Z,12.29
2022-12-26T13:54:24.269Z,12.39
2022-12-26T14:00:17.832Z,12.54
2022-12-26T14:05:36.582Z,12.69
2022-12-26T14:08:16.680Z,12.73
2022-12-26T14:10:57.310Z,12.78
2022-12-26T14:25:08.164Z,13.19
2022-12-26T14:27:57.819Z,13.27
2022-12-26T14:30:32.991Z,13.40
2022-12-26T14:33:17.706Z,13.47
2022-12-26T14:35:58.390Z,13.56
2022-12-26T14:38:40.684Z,13.51
2022-12-26T14:41:36.383Z,13.47
2022-12-26T14:44:17.115Z,13.51
2022-12-26T14:47:14.815Z,13.62
2022-12-26T14:49:44.451Z,13.85
2022-12-26T14:52:41.701Z,13.77
2022-12-26T14:55:46.862Z,13.71
2022-12-26T14:58:38.404Z,13.78
2022-12-26T15:01:46.511Z,14.10
2022-12-26T15:04:52.098Z,14.51
2022-12-26T15:08:07.988Z,15.00
2022-12-26T15:11:00.854Z,15.44
2022-12-26T15:14:02.600Z,15.70
2022-12-26T15:16:46.837Z,15.87
2022-12-26T15:19:57.846Z,15.88
2022-12-26T15:23:03.746Z,15.76
2022-12-26T15:26:07.316Z,15.42
2022-12-26T15:29:12.348Z,15.04
2022-12-26T15:31:55.969Z,14.87
2022-12-26T15:34:59.681Z,14.62
2022-12-26T15:37:46.976Z,14.40
2022-12-26T15:40:22.336Z,14.18
2022-12-26T15:43:22.172Z,14.00
2022-12-26T15:46:00.229Z,13.93
2022-12-26T15:48:54.875Z,13.83
2022-12-26T15:51:44.827Z,13.70
2022-12-26T15:54:27.843Z,13.59
2022-12-26T15:57:16.175Z,13.51
2022-12-26T16:00:13.076Z,13.49
2022-12-26T16:02:47.534Z,13.43
2022-12-26T16:05:34.751Z,13.31
2022-12-26T16:08:15.549Z,13.22
2022-12-26T16:10:46.583Z,13.15
2022-12-26T16:13:23.224Z,13.08
2022-12-26T16:15:54.599Z,13.00
2022-12-26T16:18:27.413Z,12.99
2022-12-26T16:21:17.016Z,12.97
2022-12-26T16:23:57.346Z,12.95
2022-12-26T16:26:37.515Z,12.99
2022-12-26T16:29:07.153Z,13.09
2022-12-26T16:31:35.521Z,13.17
2022-12-26T16:34:03.743Z,13.19
2022-12-26T16:36:35.806Z,13.26
2022-12-26T16:39:14.443Z,13.33
2022-12-26T16:42:00.940Z,13.11
2022-12-26T16:44:33.804Z,12.91
2022-12-26T16:47:06.033Z,12.72
2022-12-26T16:53:14.040Z,12.19
2022-12-26T16:55:45.420Z,11.76
2022-12-26T16:58:22.046Z,11.35
2022-12-26T17:01:03.427Z,10.88
2022-12-26T17:03:39.545Z,10.63
2022-12-26T17:08:50.288Z,10.47
2022-12-26T17:11:19.887Z,10.46
2022-12-26T17:13:55.340Z,10.43
2022-12-26T17:16:46.119Z,10.43
2022-12-26T17:22:40.818Z,10.48
2022-12-26T17:25:45.612Z,10.53
2022-12-26T17:28:44.272Z,10.60
2022-12-26T17:31:26.280Z,10.67
2022-12-26T17:33:57.901Z,10.74
2022-12-26T17:40:02.625Z,10.98
2022-12-26T17:42:51.424Z,11.05
2022-12-26T17:45:27.797Z,11.17
2022-12-26T17:48:03.563Z,11.30
2022-12-26T17:50:38.389Z,11.40
2022-12-26T17:53:17.426Z,11.56
2022-12-26T17:56:14.518Z,11.71
2022-12-26T18:04:33.908Z,11.93
2022-12-26T18:09:57.244Z,12.05
2022-12-26T18:12:28.585Z,12.15
2022-12-26T18:15:30.022Z,12.27
2022-12-26T18:21:06.934Z,12.51
2022-12-26T18:23:35.390Z,12.60
2022-12-26T18:26:09.084Z,12.66
2022-12-26T18:34:22.354Z,12.83
2022-12-26T18:39:44.617Z,12.90
2022-12-26T18:42:54.000Z,12.95
2022-12-26T18:45:25.358Z,12.97
2022-12-26T18:48:06.612Z,13.04
2022-12-26T18:53:39.914Z,13.08
2022-12-26T18:56:14.811Z,13.08
2022-12-26T18:58:55.770Z,13.07
2022-12-26T19:13:29.140Z,12.94
2022-12-26T19:16:02.215Z,12.94
2022-12-26T19:18:40.540Z,12.96
2022-12-26T19:27:54.256Z,12.93
2022-12-26T19:30:24.077Z,12.96
2022-12-26T19:32:53.919Z,12.97
2022-12-26T19:35:22.136Z,13.02
2022-12-26T19:38:05.665Z,13.00
2022-12-26T19:40:35.694Z,12.98
2022-12-26T19:43:06.351Z,12.93
2022-12-26T19:45:35.289Z,12.96
2022-12-26T19:48:07.244Z,12.93
2022-12-26T19:50:36.912Z,12.93
2022-12-26T19:53:27.924Z,12.94
2022-12-26T19:55:57.881Z,12.94
2022-12-26T19:58:33.134Z,12.95
2022-12-26T20:01:13.785Z,12.96
2022-12-26T20:03:59.907Z,13.01
2022-12-26T20:07:31.307Z,13.07
2022-12-26T20:10:01.742Z,13.12
2022-12-26T20:12:35.006Z,13.05
2022-12-26T20:15:03.253Z,12.85
2022-12-26T20:17:44.813Z,12.62
2022-12-26T20:20:16.674Z,12.28
2022-12-26T20:22:52.689Z,12.05
2022-12-26T20:25:25.350Z,11.88
2022-12-26T20:28:16.731Z,11.81
2022-12-26T20:36:51.206Z,11.88
2022-12-26T20:42:17.138Z,12.04
2022-12-26T20:44:45.770Z,12.14
2022-12-26T20:47:14.388Z,12.23
2022-12-26T20:49:42.686Z,12.35
2022-12-26T20:52:12.615Z,12.44
2022-12-26T20:54:40.935Z,12.56
2022-12-26T20:57:09.511Z,12.66
2022-12-26T20:59:38.108Z,12.77
2022-12-26T21:02:08.525Z,12.83
2022-12-26T21:04:36.808Z,12.80
2022-12-26T21:09:51.408Z,12.72
2022-12-26T21:14:55.584Z,12.60
2022-12-26T21:26:03.706Z,12.44
2022-12-26T21:28:31.999Z,12.38
2022-12-26T21:39:51.499Z,12.18
2022-12-26T21:42:21.489Z,12.13
2022-12-26T21:44:49.836Z,12.15
2022-12-26T21:47:18.056Z,12.20
2022-12-26T22:29:48.036Z,12.13
2022-12-26T22:32:19.435Z,12.23
2022-12-26T22:37:36.288Z,12.34
2022-12-26T22:40:04.656Z,12.28
2022-12-26T23:51:01.937Z,11.93
2022-12-26T23:56:21.467Z,11.76
2022-12-26T23:58:51.810Z,11.72
